Terminal Aerodrome Forecast
Issued by NWS Quad Cities IA IL

Home | Current Version | Previous Version | Text Only | Print | Product List | Glossary On
Versions: 1 2 3 4 5 6 7 8 9 10 11 12 13 14 15 16 17 18 19 20
203
FTUS43 KDVN 161149
TAFDBQ
TAF
KDBQ 161149Z 1612/1712 33012KT P6SM OVC015
     FM162100 31011KT P6SM BKN030
     FM170100 30008KT P6SM SCT030
     FM171000 26007KT P6SM SCT090=

USA.gov is the U.S. government's official web portal to all federal, state and local government web resources and services.